Time;durP1;ratioP1;P1;durP2;ratioP2;P2;SDS_P1;SDS_P2;PMS_P1;PMS_P2;Temp;Humidity;BMP_temperature;BMP_pressure;BME280_temperature;BME280_humidity;BME280_pressure;Samples;Min_cycle;Max_cycle;Signal;HPM_P1;HPM_P2
2021/04/18 00:00:16;;;;;;;66.72;22.83;;;;;;;;;;8276073;28;20407;-74
2021/04/18 00:04:20;;;;;;;93.38;25.83;;;;;;;;;;8292000;28;20078;-75
2021/04/18 00:08:25;;;;;;;214.02;46.83;;;;;;;;;;8293179;28;20471;-75
2021/04/18 00:12:30;;;;;;;156.23;40.42;;;;;;;;;;8274312;28;20394;-75
2021/04/18 00:16:35;;;;;;;100.78;28.13;;;;;;;;;;8290620;28;20464;-74
2021/04/18 00:20:41;;;;;;;93.40;23.52;;;;;;;;;;8275880;28;20371;-74
2021/04/18 00:24:45;;;;;;;77.05;21.70;;;;;;;;;;8291800;28;20472;-74
2021/04/18 00:28:50;;;;;;;57.42;17.88;;;;;;;;;;8290066;28;20368;-75
2021/04/18 00:32:54;;;;;;;60.47;18.73;;;;;;;;;;8291426;28;20367;-74
2021/04/18 00:36:58;;;;;;;97.25;20.02;;;;;;;;;;8291018;28;20483;-74
2021/04/18 00:41:03;;;;;;;62.90;19.48;;;;;;;;;;8293260;28;20467;-74
2021/04/18 00:45:11;;;;;;;64.22;15.40;;;;;;;;;;8292760;28;20471;-75
2021/04/18 00:49:16;;;;;;;49.42;16.40;;;;;;;;;;8273575;28;20440;-74
2021/04/18 00:53:21;;;;;;;42.55;15.98;;;;;;;;;;8290120;28;20364;-77
2021/04/18 00:57:25;;;;;;;127.45;28.67;;;;;;;;;;8290056;28;20060;-75
2021/04/18 01:01:30;;;;;;;39.97;15.32;;;;;;;;;;8289586;28;20116;-75
2021/04/18 01:05:35;;;;;;;48.63;15.75;;;;;;;;;;8264970;28;20052;-74
2021/04/18 01:09:41;;;;;;;47.42;14.85;;;;;;;;;;8272547;28;20463;-74
2021/04/18 01:13:45;;;;;;;60.63;15.95;;;;;;;;;;8290958;28;20459;-74
2021/04/18 01:17:50;;;;;;;50.72;16.58;;;;;;;;;;8272391;28;20391;-75
2021/04/18 01:21:55;;;;;;;60.05;17.35;;;;;;;;;;8290842;28;20507;-74
2021/04/18 01:26:11;;;;;;;52.92;18.35;;;;;;;;;;8258313;28;20371;-74
2021/04/18 01:30:29;;;;;;;78.40;19.33;;;;;;;;;;8291293;28;20363;-73
2021/04/18 01:34:33;;;;;;;114.15;26.80;;;;;;;;;;8273472;28;20370;-75
2021/04/18 01:38:38;;;;;;;84.40;22.92;;;;;;;;;;8290300;28;20459;-75
2021/04/18 01:42:45;;;;;;;84.85;22.60;;;;;;;;;;8290617;28;20367;-75
2021/04/18 01:46:49;;;;;;;72.13;20.70;;;;;;;;;;8290754;28;20459;-75
2021/04/18 01:50:54;;;;;;;67.43;18.30;;;;;;;;;;8276792;28;20138;-74
2021/04/18 01:55:01;;;;;;;74.30;16.88;;;;;;;;;;8279254;28;20459;-76
2021/04/18 01:59:07;;;;;;;61.60;20.92;;;;;;;;;;8278201;28;20074;-75
2021/04/18 02:03:12;;;;;;;63.83;19.80;;;;;;;;;;8279337;28;20482;-74
2021/04/18 02:07:20;;;;;;;70.47;16.05;;;;;;;;;;8297162;28;20119;-74
2021/04/18 02:11:24;;;;;;;64.07;17.02;;;;;;;;;;8278091;28;20390;-75
2021/04/18 02:15:29;;;;;;;68.28;17.08;;;;;;;;;;8296280;28;20107;-74
2021/04/18 02:19:35;;;;;;;85.32;30.15;;;;;;;;;;8279415;28;20044;-77
2021/04/18 02:23:42;;;;;;;67.78;22.70;;;;;;;;;;8296942;28;20375;-75
2021/04/18 02:27:48;;;;;;;74.20;22.50;;;;;;;;;;8298751;28;20056;-74
2021/04/18 02:31:59;;;;;;;58.10;17.25;;;;;;;;;;8295844;28;20475;-74
2021/04/18 02:36:08;;;;;;;53.90;16.85;;;;;;;;;;8278032;28;20611;-74
2021/04/18 02:40:15;;;;;;;47.35;17.10;;;;;;;;;;8278009;28;20071;-75
2021/04/18 02:44:22;;;;;;;51.80;17.90;;;;;;;;;;8277028;28;20490;-74
2021/04/18 02:48:27;;;;;;;57.67;19.83;;;;;;;;;;8277899;28;20048;-74
2021/04/18 02:52:33;;;;;;;58.40;18.50;;;;;;;;;;8296290;28;20052;-74
2021/04/18 02:56:37;;;;;;;56.90;19.13;;;;;;;;;;8277581;28;20370;-75
2021/04/18 03:00:47;;;;;;;52.85;18.63;;;;;;;;;;8295912;28;20049;-75
2021/04/18 03:04:57;;;;;;;56.92;18.60;;;;;;;;;;8294148;28;20361;-74
2021/04/18 03:09:04;;;;;;;71.28;19.98;;;;;;;;;;8277240;28;20414;-78
2021/04/18 03:13:12;;;;;;;62.72;18.75;;;;;;;;;;8261367;28;20402;-73
2021/04/18 03:17:20;;;;;;;56.67;18.05;;;;;;;;;;8276443;28;20387;-74
2021/04/18 03:21:33;;;;;;;52.10;18.67;;;;;;;;;;8294246;28;20052;-74
2021/04/18 03:25:39;;;;;;;51.03;17.13;;;;;;;;;;8260680;28;20470;-75
2021/04/18 03:29:49;;;;;;;50.30;16.98;;;;;;;;;;8276010;28;20377;-75
2021/04/18 03:33:54;;;;;;;49.88;17.60;;;;;;;;;;8276122;28;20456;-74
2021/04/18 03:37:58;;;;;;;60.85;16.42;;;;;;;;;;8291739;28;20463;-74
2021/04/18 03:42:04;;;;;;;57.17;17.40;;;;;;;;;;8293676;28;20472;-75
2021/04/18 03:46:08;;;;;;;67.45;17.00;;;;;;;;;;8275030;28;20400;-75
2021/04/18 03:50:21;;;;;;;69.32;18.20;;;;;;;;;;8274809;28;20487;-75
2021/04/18 03:54:49;;;;;;;61.53;18.57;;;;;;;;;;8294339;28;20477;-74
2021/04/18 03:58:54;;;;;;;59.65;17.35;;;;;;;;;;8292551;28;20944;-74
2021/04/18 04:03:01;;;;;;;72.15;17.35;;;;;;;;;;8258603;28;20483;-74
2021/04/18 04:07:12;;;;;;;73.22;17.83;;;;;;;;;;8274436;28;20371;-76
2021/04/18 04:11:18;;;;;;;65.38;17.45;;;;;;;;;;8274680;28;20348;-75
2021/04/18 04:15:25;;;;;;;83.45;17.98;;;;;;;;;;8258308;28;20443;-74
2021/04/18 04:19:31;;;;;;;44.83;15.50;;;;;;;;;;8275354;28;20343;-74
2021/04/18 04:23:58;;;;;;;75.13;18.60;;;;;;;;;;8278075;28;20482;-75
2021/04/18 04:28:07;;;;;;;57.28;16.58;;;;;;;;;;8273922;28;20486;-74
2021/04/18 04:32:11;;;;;;;62.05;17.25;;;;;;;;;;8274976;28;20375;-74
2021/04/18 04:36:15;;;;;;;97.82;16.77;;;;;;;;;;8292175;28;20371;-74
2021/04/18 04:40:20;;;;;;;115.75;15.98;;;;;;;;;;8293583;28;20372;-74
2021/04/18 04:44:24;;;;;;;43.10;16.42;;;;;;;;;;8291000;28;20463;-74
2021/04/18 04:48:30;;;;;;;59.90;16.13;;;;;;;;;;8291701;28;20379;-74
2021/04/18 04:52:34;;;;;;;75.35;17.30;;;;;;;;;;8292849;28;20056;-74
2021/04/18 04:56:38;;;;;;;66.95;20.55;;;;;;;;;;8291941;28;20075;-75
2021/04/18 05:00:43;;;;;;;54.83;17.52;;;;;;;;;;8275070;28;20452;-74
2021/04/18 05:04:47;;;;;;;76.07;21.15;;;;;;;;;;8290382;28;20361;-74
2021/04/18 05:08:53;;;;;;;65.05;20.95;;;;;;;;;;8290829;28;20044;-74
2021/04/18 05:12:57;;;;;;;73.85;21.80;;;;;;;;;;8290974;28;20395;-74
2021/04/18 05:17:03;;;;;;;84.32;25.17;;;;;;;;;;8273751;28;20383;-74
2021/04/18 05:21:07;;;;;;;51.53;17.25;;;;;;;;;;8291002;28;20379;-75
2021/04/18 05:25:14;;;;;;;55.15;16.02;;;;;;;;;;8286391;28;20052;-75
2021/04/18 05:29:19;;;;;;;61.53;18.15;;;;;;;;;;8273268;28;20423;-74
2021/04/18 05:33:25;;;;;;;40.05;14.45;;;;;;;;;;8292067;28;20459;-75
2021/04/18 05:37:30;;;;;;;32.30;13.15;;;;;;;;;;8289860;28;20661;-75
2021/04/18 05:41:38;;;;;;;36.50;14.02;;;;;;;;;;8273594;28;20078;-75
2021/04/18 05:45:42;;;;;;;27.60;11.30;;;;;;;;;;8289935;28;20440;-75
2021/04/18 05:49:47;;;;;;;29.83;11.55;;;;;;;;;;8273047;28;20487;-75
2021/04/18 05:53:52;;;;;;;24.38;11.20;;;;;;;;;;8291121;28;20367;-75
2021/04/18 05:57:56;;;;;;;36.10;14.85;;;;;;;;;;8289751;28;20486;-75
2021/04/18 06:02:00;;;;;;;31.70;12.65;;;;;;;;;;8289778;28;20383;-75
2021/04/18 06:06:06;;;;;;;17.42;9.05;;;;;;;;;;8270880;28;20441;-75
2021/04/18 06:10:12;;;;;;;20.77;10.95;;;;;;;;;;8289987;28;20479;-75
2021/04/18 06:14:16;;;;;;;14.15;7.93;;;;;;;;;;8273035;28;20397;-76
2021/04/18 06:18:19;;;;;;;19.45;10.98;;;;;;;;;;8291435;28;20440;-75
2021/04/18 06:22:28;;;;;;;16.73;9.07;;;;;;;;;;8272671;28;20462;-75
2021/04/18 06:26:32;;;;;;;17.98;8.98;;;;;;;;;;8291016;28;20364;-75
2021/04/18 06:30:36;;;;;;;18.02;8.95;;;;;;;;;;8288681;28;20368;-74
2021/04/18 06:34:41;;;;;;;17.10;8.68;;;;;;;;;;8290279;28;20460;-74
2021/04/18 06:38:45;;;;;;;20.65;10.15;;;;;;;;;;8294072;28;20061;-75
2021/04/18 06:42:55;;;;;;;16.30;9.18;;;;;;;;;;8294370;28;20456;-75
2021/04/18 06:47:01;;;;;;;21.15;10.98;;;;;;;;;;8277633;28;20379;-74
2021/04/18 06:51:06;;;;;;;16.63;8.40;;;;;;;;;;8276461;28;20440;-75
2021/04/18 06:55:12;;;;;;;18.52;8.93;;;;;;;;;;8293883;28;20057;-74
2021/04/18 06:59:17;;;;;;;19.75;9.80;;;;;;;;;;8293954;28;20064;-74
2021/04/18 07:03:22;;;;;;;22.52;10.15;;;;;;;;;;8276508;28;20471;-76
2021/04/18 07:07:30;;;;;;;20.10;9.45;;;;;;;;;;8260243;28;20344;-74
2021/04/18 07:11:50;;;;;;;18.13;8.77;;;;;;;;;;8276332;28;20345;-76
2021/04/18 07:15:54;;;;;;;17.92;9.30;;;;;;;;;;8276384;28;20387;-74
2021/04/18 07:20:13;;;;;;;19.15;10.05;;;;;;;;;;8294791;28;20443;-74
2021/04/18 07:24:20;;;;;;;13.73;7.32;;;;;;;;;;8276342;28;20418;-74
2021/04/18 07:28:27;;;;;;;20.45;9.18;;;;;;;;;;8295376;28;20423;-74
2021/04/18 07:32:31;;;;;;;19.70;9.57;;;;;;;;;;8292407;28;20466;-74
2021/04/18 07:36:45;;;;;;;15.32;8.07;;;;;;;;;;8292794;28;20406;-75
2021/04/18 07:40:54;;;;;;;11.18;6.47;;;;;;;;;;8292056;28;20048;-74
2021/04/18 07:45:01;;;;;;;12.02;6.63;;;;;;;;;;8293327;28;20460;-74
2021/04/18 07:49:05;;;;;;;12.57;7.70;;;;;;;;;;8292903;28;20495;-74
2021/04/18 07:53:10;;;;;;;38.83;22.83;;;;;;;;;;8275748;28;20490;-74
2021/04/18 07:57:18;;;;;;;13.50;6.72;;;;;;;;;;8291209;28;20506;-74
2021/04/18 08:01:23;;;;;;;23.88;13.38;;;;;;;;;;8292167;28;20498;-76
2021/04/18 08:05:34;;;;;;;28.85;14.13;;;;;;;;;;8292533;28;20056;-74
2021/04/18 08:09:39;;;;;;;17.40;9.98;;;;;;;;;;8276126;28;20464;-73
2021/04/18 08:13:54;;;;;;;15.02;7.45;;;;;;;;;;8293394;28;20071;-75
2021/04/18 08:18:12;;;;;;;22.10;9.88;;;;;;;;;;8292143;28;20382;-74
2021/04/18 08:22:17;;;;;;;19.45;9.27;;;;;;;;;;8293957;28;20444;-74
2021/04/18 08:26:25;;;;;;;13.55;6.55;;;;;;;;;;8275156;28;20490;-74
2021/04/18 08:30:32;;;;;;;52.75;24.45;;;;;;;;;;8273376;28;20466;-74
2021/04/18 08:34:43;;;;;;;14.43;6.75;;;;;;;;;;8292605;28;20454;-74
2021/04/18 08:39:10;;;;;;;10.88;5.50;;;;;;;;;;8292702;28;20487;-74
2021/04/18 08:43:23;;;;;;;13.27;6.65;;;;;;;;;;8269702;28;20359;-74
2021/04/18 08:47:33;;;;;;;21.33;13.10;;;;;;;;;;8290975;28;20079;-74
2021/04/18 08:51:39;;;;;;;14.18;8.02;;;;;;;;;;8273700;28;20471;-75
2021/04/18 08:56:02;;;;;;;18.20;10.82;;;;;;;;;;8273198;28;20460;-74
2021/04/18 09:00:15;;;;;;;16.45;9.70;;;;;;;;;;8256704;28;20356;-74
2021/04/18 09:04:21;;;;;;;20.67;12.48;;;;;;;;;;8290209;28;20049;-75
2021/04/18 09:08:25;;;;;;;11.95;6.70;;;;;;;;;;8273496;28;20460;-74
2021/04/18 09:12:30;;;;;;;12.20;5.80;;;;;;;;;;8273303;28;20360;-74
2021/04/18 09:16:38;;;;;;;10.30;5.43;;;;;;;;;;8290294;28;20379;-74
2021/04/18 09:20:42;;;;;;;9.25;5.18;;;;;;;;;;8274122;28;20371;-74
2021/04/18 09:24:55;;;;;;;12.00;5.55;;;;;;;;;;8292017;28;20513;-73
2021/04/18 09:29:13;;;;;;;11.65;6.25;;;;;;;;;;8290905;28;20398;-75
2021/04/18 09:33:17;;;;;;;9.82;5.90;;;;;;;;;;8273774;28;20451;-74
2021/04/18 09:37:35;;;;;;;11.15;5.63;;;;;;;;;;8290551;28;20333;-74
2021/04/18 09:41:41;;;;;;;9.15;4.95;;;;;;;;;;8272098;28;20498;-74
2021/04/18 09:45:59;;;;;;;8.93;5.50;;;;;;;;;;8289018;28;20337;-74
2021/04/18 09:50:22;;;;;;;10.15;5.38;;;;;;;;;;8272398;28;20387;-74
2021/04/18 09:54:35;;;;;;;10.82;6.05;;;;;;;;;;8275398;28;20367;-74
2021/04/18 09:58:42;;;;;;;8.18;5.07;;;;;;;;;;8290197;28;20366;-74
2021/04/18 10:03:13;;;;;;;7.45;4.72;;;;;;;;;;8272225;28;20383;-74
2021/04/18 10:07:28;;;;;;;10.63;5.20;;;;;;;;;;8291878;28;20470;-74
2021/04/18 10:11:34;;;;;;;8.70;5.25;;;;;;;;;;8291819;28;20481;-74
2021/04/18 10:15:56;;;;;;;12.30;5.88;;;;;;;;;;8280795;28;20352;-73
2021/04/18 10:20:00;;;;;;;11.02;6.07;;;;;;;;;;8278691;28;20507;-73
2021/04/18 10:24:41;;;;;;;23.73;10.10;;;;;;;;;;8277137;28;20467;-73
2021/04/18 10:28:55;;;;;;;9.52;5.70;;;;;;;;;;8296152;28;20074;-74
2021/04/18 10:33:21;;;;;;;10.50;6.35;;;;;;;;;;8383712;27;20582;-73
2021/04/18 10:37:26;;;;;;;12.48;6.80;;;;;;;;;;8319056;28;20455;-74
2021/04/18 10:41:32;;;;;;;11.45;5.85;;;;;;;;;;8319767;28;20401;-73
2021/04/18 10:45:36;;;;;;;11.75;6.20;;;;;;;;;;8304674;28;20075;-74
2021/04/18 10:49:46;;;;;;;21.00;8.50;;;;;;;;;;8326295;28;20056;-74
2021/04/18 10:53:50;;;;;;;11.60;6.80;;;;;;;;;;8335860;28;20063;-73
2021/04/18 10:57:55;;;;;;;11.93;6.45;;;;;;;;;;8334134;28;20785;-73
2021/04/18 11:02:00;;;;;;;12.13;7.03;;;;;;;;;;8350950;28;20359;-73
2021/04/18 11:06:13;;;;;;;17.70;9.10;;;;;;;;;;8351858;28;20484;-73
2021/04/18 11:10:17;;;;;;;19.23;10.23;;;;;;;;;;8351111;28;20478;-73
2021/04/18 11:14:21;;;;;;;11.10;6.25;;;;;;;;;;8352223;28;20480;-72
2021/04/18 11:18:26;;;;;;;14.23;7.72;;;;;;;;;;8350473;28;20382;-72
2021/04/18 11:22:30;;;;;;;126.53;62.05;;;;;;;;;;8351100;28;20454;-75
2021/04/18 11:26:38;;;;;;;21.40;12.90;;;;;;;;;;8333573;28;20370;-73
2021/04/18 11:30:46;;;;;;;66.25;30.98;;;;;;;;;;8331191;28;20446;-72
2021/04/18 11:34:53;;;;;;;26.20;13.27;;;;;;;;;;8351986;28;20488;-72
2021/04/18 11:38:57;;;;;;;23.05;13.63;;;;;;;;;;8350587;28;20474;-72
2021/04/18 11:43:06;;;;;;;;;;;;;;;;;;8338965;28;20462;-72
2021/04/18 11:47:10;;;;;;;28.65;12.90;;;;;;;;;;8314279;28;19920;-72
2021/04/18 11:51:15;;;;;;;19.40;9.95;;;;;;;;;;8277107;28;20169;-72
2021/04/18 11:55:22;;;;;;;54.00;22.85;;;;;;;;;;8309636;28;20477;-72
2021/04/18 11:59:26;;;;;;;16.52;9.38;;;;;;;;;;8309858;28;20366;-73
2021/04/18 12:03:29;;;;;;;41.20;16.98;;;;;;;;;;8326853;28;20493;-72
2021/04/18 12:07:34;;;;;;;20.85;11.18;;;;;;;;;;8328156;28;20481;-72
2021/04/18 12:11:39;;;;;;;20.70;9.82;;;;;;;;;;8308703;28;20363;-73
2021/04/18 12:15:44;;;;;;;31.05;13.65;;;;;;;;;;8329566;28;20319;-72
2021/04/18 12:19:49;;;;;;;27.70;12.80;;;;;;;;;;8306873;28;20384;-72
2021/04/18 12:23:55;;;;;;;47.28;18.88;;;;;;;;;;8325722;28;20086;-72
2021/04/18 12:28:01;;;;;;;25.40;13.32;;;;;;;;;;8326483;28;20454;-72
2021/04/18 12:32:06;;;;;;;54.13;18.35;;;;;;;;;;8291400;28;20463;-72
2021/04/18 12:36:11;;;;;;;30.73;11.65;;;;;;;;;;8292899;28;20573;-72
2021/04/18 12:40:16;;;;;;;25.02;12.43;;;;;;;;;;8293490;28;20361;-72
2021/04/18 12:44:20;;;;;;;23.83;12.57;;;;;;;;;;8307672;28;20536;-72
2021/04/18 12:48:26;;;;;;;68.22;25.90;;;;;;;;;;8292607;28;20048;-71
2021/04/18 12:52:30;;;;;;;43.00;18.73;;;;;;;;;;8291205;28;20066;-70
2021/04/18 12:56:38;;;;;;;34.85;16.15;;;;;;;;;;8291796;28;20388;-70
2021/04/18 13:00:42;;;;;;;;;;;;;;;;;;8280834;28;20364;-70
2021/04/18 13:04:47;;;;;;;18.85;9.68;;;;;;;;;;8258075;28;19992;-70
2021/04/18 13:08:52;;;;;;;20.65;10.10;;;;;;;;;;8258106;28;20360;-70
2021/04/18 13:12:58;;;;;;;33.83;15.35;;;;;;;;;;8256948;28;20386;-70
2021/04/18 13:17:02;;;;;;;19.85;11.10;;;;;;;;;;8259578;28;20068;-70
2021/04/18 13:21:08;;;;;;;23.65;11.98;;;;;;;;;;8258520;28;20510;-70
2021/04/18 13:25:18;;;;;;;25.77;15.13;;;;;;;;;;8259869;28;20464;-70
2021/04/18 13:29:23;;;;;;;22.90;11.73;;;;;;;;;;8257187;28;20472;-70
2021/04/18 13:33:27;;;;;;;19.05;10.60;;;;;;;;;;8239003;28;20384;-70
2021/04/18 13:37:32;;;;;;;23.23;12.35;;;;;;;;;;8258027;28;20503;-69
2021/04/18 13:41:38;;;;;;;22.67;11.95;;;;;;;;;;8258925;28;20383;-71
2021/04/18 13:45:46;;;;;;;15.70;8.43;;;;;;;;;;8241000;28;20393;-71
2021/04/18 13:49:49;;;;;;;27.73;10.40;;;;;;;;;;8258124;28;20579;-72
2021/04/18 13:53:53;;;;;;;16.15;10.15;;;;;;;;;;8238757;28;20367;-72
2021/04/18 13:58:00;;;;;;;21.50;10.68;;;;;;;;;;8257672;28;20056;-71
2021/04/18 14:02:05;;;;;;;14.73;9.13;;;;;;;;;;8257630;28;20063;-71
2021/04/18 14:06:10;;;;;;;18.48;10.05;;;;;;;;;;8257286;28;20470;-72
2021/04/18 14:10:15;;;;;;;17.60;8.88;;;;;;;;;;8257639;28;20451;-72
2021/04/18 14:14:18;;;;;;;21.65;11.57;;;;;;;;;;8257707;28;20410;-71
2021/04/18 14:18:23;;;;;;;22.90;11.63;;;;;;;;;;8257406;28;20443;-71
2021/04/18 14:22:28;;;;;;;34.55;15.27;;;;;;;;;;8257428;28;20072;-71
2021/04/18 14:26:34;;;;;;;30.83;13.05;;;;;;;;;;8257178;28;20369;-71
2021/04/18 14:30:39;;;;;;;31.38;14.80;;;;;;;;;;8266387;28;20383;-72
2021/04/18 14:34:47;;;;;;;25.65;12.18;;;;;;;;;;8271980;28;20052;-72
2021/04/18 14:38:52;;;;;;;34.00;15.88;;;;;;;;;;8289468;28;20066;-71
2021/04/18 14:42:59;;;;;;;24.38;11.90;;;;;;;;;;8286924;28;20530;-71
2021/04/18 14:47:05;;;;;;;16.40;9.57;;;;;;;;;;8271470;28;20052;-71
2021/04/18 14:51:10;;;;;;;55.53;28.77;;;;;;;;;;8271762;28;20509;-71
2021/04/18 14:55:16;;;;;;;21.20;11.82;;;;;;;;;;8270999;28;20348;-71
2021/04/18 14:59:23;;;;;;;21.13;11.85;;;;;;;;;;8270916;28;20418;-72
2021/04/18 15:03:28;;;;;;;15.93;8.75;;;;;;;;;;8271308;28;20045;-72
2021/04/18 15:07:32;;;;;;;14.35;8.55;;;;;;;;;;8290977;28;20355;-71
2021/04/18 15:11:37;;;;;;;16.67;10.43;;;;;;;;;;8270412;28;20467;-71
2021/04/18 15:15:44;;;;;;;24.58;14.45;;;;;;;;;;8286833;28;20463;-72
2021/04/18 15:19:53;;;;;;;19.67;11.38;;;;;;;;;;8276907;28;20475;-71
2021/04/18 15:23:57;;;;;;;20.55;11.52;;;;;;;;;;8295091;28;20375;-71
2021/04/18 15:28:05;;;;;;;18.98;10.77;;;;;;;;;;8276953;28;20070;-71
2021/04/18 15:32:24;;;;;;;17.42;10.15;;;;;;;;;;8259565;28;20082;-71
2021/04/18 15:36:34;;;;;;;21.02;8.65;;;;;;;;;;8260998;28;20463;-71
2021/04/18 15:40:38;;;;;;;24.17;11.23;;;;;;;;;;8262705;28;20053;-71
2021/04/18 15:44:46;;;;;;;19.05;10.75;;;;;;;;;;8260219;28;20486;-71
2021/04/18 15:48:50;;;;;;;28.25;16.65;;;;;;;;;;8263401;28;20484;-71
2021/04/18 15:52:59;;;;;;;28.23;14.95;;;;;;;;;;8266196;28;20379;-71
2021/04/18 15:57:11;;;;;;;40.47;20.15;;;;;;;;;;8279280;28;20052;-71
2021/04/18 16:01:19;;;;;;;35.72;18.55;;;;;;;;;;8287277;28;20460;-71
2021/04/18 16:05:25;;;;;;;28.63;13.90;;;;;;;;;;8260671;28;20493;-73
2021/04/18 16:09:30;;;;;;;29.25;15.48;;;;;;;;;;8260732;28;20084;-72
2021/04/18 16:13:34;;;;;;;29.80;14.70;;;;;;;;;;8260520;28;20334;-72
2021/04/18 16:17:39;;;;;;;29.55;14.50;;;;;;;;;;8259147;28;20403;-72
2021/04/18 16:21:43;;;;;;;20.08;11.25;;;;;;;;;;8261466;28;20396;-73
2021/04/18 16:25:48;;;;;;;21.60;11.65;;;;;;;;;;8274313;28;20379;-72
2021/04/18 16:29:55;;;;;;;59.67;29.33;;;;;;;;;;8262963;28;20471;-72
2021/04/18 16:33:59;;;;;;;96.10;38.80;;;;;;;;;;8292698;28;20379;-72
2021/04/18 16:38:04;;;;;;;394.15;127.22;;;;;;;;;;8275047;28;20360;-72
2021/04/18 16:42:13;;;;;;;48.28;28.23;;;;;;;;;;8259764;28;20406;-72
2021/04/18 16:46:17;;;;;;;46.30;22.58;;;;;;;;;;8291409;28;20076;-72
2021/04/18 16:50:22;;;;;;;72.85;23.40;;;;;;;;;;8289668;28;20468;-72
2021/04/18 16:54:27;;;;;;;84.85;28.05;;;;;;;;;;8257780;28;20048;-72
2021/04/18 16:58:34;;;;;;;66.72;22.10;;;;;;;;;;8290605;28;20486;-72
2021/04/18 17:02:41;;;;;;;63.30;26.52;;;;;;;;;;8274346;28;20052;-72
2021/04/18 17:07:05;;;;;;;51.85;21.23;;;;;;;;;;8274563;28;20455;-72
2021/04/18 17:11:10;;;;;;;59.17;23.25;;;;;;;;;;8289750;28;20505;-72
2021/04/18 17:15:15;;;;;;;49.97;20.27;;;;;;;;;;8272435;28;20467;-72
2021/04/18 17:19:19;;;;;;;55.35;22.60;;;;;;;;;;8273078;28;20373;-72
2021/04/18 17:23:24;;;;;;;55.85;24.02;;;;;;;;;;8290290;28;20075;-75
2021/04/18 17:27:31;;;;;;;39.85;16.92;;;;;;;;;;8273224;28;20071;-72
2021/04/18 17:31:45;;;;;;;81.45;23.27;;;;;;;;;;8291438;28;20056;-72
2021/04/18 17:35:50;;;;;;;69.78;21.40;;;;;;;;;;8272957;28;20375;-72
2021/04/18 17:39:54;;;;;;;114.50;25.85;;;;;;;;;;8267624;28;20387;-72
2021/04/18 17:44:02;;;;;;;128.40;31.00;;;;;;;;;;8223943;28;20467;-72
2021/04/18 17:48:08;;;;;;;74.88;22.98;;;;;;;;;;8257814;28;20498;-72
2021/04/18 17:52:12;;;;;;;62.83;23.38;;;;;;;;;;8239532;28;20472;-72
2021/04/18 17:56:21;;;;;;;;;;;;;;;;;;8257349;28;20392;-71
2021/04/18 18:00:35;;;;;;;152.00;41.97;;;;;;;;;;8257235;28;20393;-72
2021/04/18 18:05:04;;;;;;;278.40;60.83;;;;;;;;;;8233008;28;20442;-72
2021/04/18 18:09:11;;;;;;;;;;;;;;;;;;8240752;28;20997;-72
2021/04/18 18:13:17;;;;;;;56.38;25.95;;;;;;;;;;8239520;28;20332;-71
2021/04/18 18:17:24;;;;;;;65.30;30.30;;;;;;;;;;8223364;28;20130;-71
2021/04/18 18:21:37;;;;;;;70.22;30.73;;;;;;;;;;8257917;28;20387;-72
2021/04/18 18:25:40;;;;;;;57.67;24.73;;;;;;;;;;8238649;28;20053;-72
2021/04/18 18:29:44;;;;;;;59.60;28.38;;;;;;;;;;8255929;28;20407;-72
2021/04/18 18:33:47;;;;;;;138.18;58.92;;;;;;;;;;8258713;28;20364;-72
2021/04/18 18:37:53;;;;;;;92.47;44.40;;;;;;;;;;8255666;28;20491;-72
2021/04/18 18:41:56;;;;;;;69.93;33.70;;;;;;;;;;8237712;28;20510;-72
2021/04/18 18:46:00;;;;;;;91.03;43.65;;;;;;;;;;8238685;28;20488;-72
2021/04/18 18:50:10;;;;;;;92.43;46.92;;;;;;;;;;8237825;28;20410;-72
2021/04/18 18:54:15;;;;;;;81.75;36.00;;;;;;;;;;8261502;28;20061;-72
2021/04/18 18:58:20;;;;;;;76.43;28.33;;;;;;;;;;8262183;28;20480;-72
2021/04/18 19:02:25;;;;;;;91.72;35.55;;;;;;;;;;8264241;28;20053;-72
2021/04/18 19:06:33;;;;;;;66.55;30.73;;;;;;;;;;8243535;28;20384;-72
2021/04/18 19:10:38;;;;;;;;;;;;;;;;;;8246438;28;20049;-72
2021/04/18 19:14:43;;;;;;;51.33;21.70;;;;;;;;;;8245033;28;20244;-72
2021/04/18 19:18:48;;;;;;;63.92;24.40;;;;;;;;;;8261248;28;20506;-72
2021/04/18 19:22:52;;;;;;;67.10;25.58;;;;;;;;;;8261967;28;20486;-72
2021/04/18 19:26:57;;;;;;;60.00;23.05;;;;;;;;;;8246033;28;20415;-72
2021/04/18 19:31:01;;;;;;;61.47;23.77;;;;;;;;;;8244553;28;20383;-72
2021/04/18 19:35:08;;;;;;;55.90;26.17;;;;;;;;;;8242766;28;20372;-72
2021/04/18 19:39:21;;;;;;;43.10;19.63;;;;;;;;;;8243934;28;20045;-72
2021/04/18 19:43:27;;;;;;;50.83;23.13;;;;;;;;;;8245661;28;20471;-72
2021/04/18 19:47:31;;;;;;;37.60;18.95;;;;;;;;;;8244597;28;20456;-72
2021/04/18 19:51:36;;;;;;;41.58;21.35;;;;;;;;;;8245143;28;20460;-72
2021/04/18 19:55:41;;;;;;;49.70;24.63;;;;;;;;;;8263806;28;20464;-72
2021/04/18 19:59:45;;;;;;;41.80;22.42;;;;;;;;;;8260304;28;20484;-72
2021/04/18 20:03:49;;;;;;;46.83;23.33;;;;;;;;;;8260658;28;20452;-71
2021/04/18 20:07:54;;;;;;;38.38;20.48;;;;;;;;;;8262341;28;20476;-72
2021/04/18 20:11:58;;;;;;;42.85;22.23;;;;;;;;;;8243462;28;20468;-72
2021/04/18 20:16:03;;;;;;;39.25;20.30;;;;;;;;;;8242937;28;20414;-72
2021/04/18 20:20:11;;;;;;;35.22;17.95;;;;;;;;;;8260183;28;20115;-72
2021/04/18 20:24:16;;;;;;;;;;;;;;;;;;8243119;28;20071;-72
2021/04/18 20:28:21;;;;;;;28.85;15.32;;;;;;;;;;8260209;28;20379;-73
2021/04/18 20:32:27;;;;;;;25.90;14.55;;;;;;;;;;8259577;28;20501;-72
2021/04/18 20:36:34;;;;;;;26.98;13.63;;;;;;;;;;8242325;28;20464;-72
2021/04/18 20:40:38;;;;;;;27.00;15.30;;;;;;;;;;8259372;28;20460;-72
2021/04/18 20:44:45;;;;;;;29.35;14.50;;;;;;;;;;8258040;28;20375;-72
2021/04/18 20:48:49;;;;;;;31.02;15.18;;;;;;;;;;8241286;28;20402;-72
2021/04/18 20:52:54;;;;;;;25.27;13.43;;;;;;;;;;8225210;28;20353;-72
2021/04/18 20:57:03;;;;;;;26.13;13.43;;;;;;;;;;8242675;28;20379;-72
2021/04/18 21:01:10;;;;;;;26.30;13.52;;;;;;;;;;8241616;28;20395;-72
2021/04/18 21:05:22;;;;;;;23.83;12.32;;;;;;;;;;8258180;28;20497;-72
2021/04/18 21:09:25;;;;;;;23.27;12.70;;;;;;;;;;8240840;28;20376;-72
2021/04/18 21:13:29;;;;;;;24.45;12.35;;;;;;;;;;8260467;28;20057;-71
2021/04/18 21:17:35;;;;;;;23.55;11.38;;;;;;;;;;8241472;28;20048;-72
2021/04/18 21:21:41;;;;;;;22.38;11.85;;;;;;;;;;8258524;28;20391;-72
2021/04/18 21:25:46;;;;;;;25.38;13.90;;;;;;;;;;8224387;28;20486;-72
2021/04/18 21:29:51;;;;;;;32.47;14.25;;;;;;;;;;8259511;28;20468;-72
2021/04/18 21:33:55;;;;;;;23.70;12.70;;;;;;;;;;8259908;28;20443;-72
2021/04/18 21:37:59;;;;;;;47.22;16.90;;;;;;;;;;8261501;28;20483;-72
2021/04/18 21:42:04;;;;;;;48.15;18.48;;;;;;;;;;8259018;28;20379;-72
2021/04/18 21:46:21;;;;;;;38.40;16.58;;;;;;;;;;8258426;28;20360;-72
2021/04/18 21:50:27;;;;;;;43.38;19.00;;;;;;;;;;8257852;28;20491;-72
2021/04/18 21:54:32;;;;;;;251.32;66.47;;;;;;;;;;8257680;28;20785;-71
2021/04/18 21:58:36;;;;;;;270.50;73.43;;;;;;;;;;8259532;28;20064;-72
2021/04/18 22:02:46;;;;;;;237.60;66.13;;;;;;;;;;8240501;28;20452;-72
2021/04/18 22:06:51;;;;;;;150.18;41.30;;;;;;;;;;8224724;28;20455;-72
2021/04/18 22:10:55;;;;;;;117.22;29.58;;;;;;;;;;8239381;28;20411;-72
2021/04/18 22:15:05;;;;;;;32.58;14.25;;;;;;;;;;8240537;28;20498;-72
2021/04/18 22:19:17;;;;;;;24.00;12.48;;;;;;;;;;8257306;28;20375;-72
2021/04/18 22:23:37;;;;;;;;;;;;;;;;;;8260561;28;20398;-72
2021/04/18 22:27:42;;;;;;;47.78;20.27;;;;;;;;;;8239980;28;20239;-72
2021/04/18 22:31:46;;;;;;;43.47;17.85;;;;;;;;;;8206000;28;20387;-72
2021/04/18 22:35:51;;;;;;;39.15;17.40;;;;;;;;;;8225069;28;20381;-71
2021/04/18 22:39:56;;;;;;;54.67;23.33;;;;;;;;;;8223283;28;20072;-71
2021/04/18 22:44:00;;;;;;;51.58;22.02;;;;;;;;;;8223560;28;20071;-72
2021/04/18 22:48:05;;;;;;;46.90;19.55;;;;;;;;;;8222914;28;20054;-72
2021/04/18 22:52:10;;;;;;;32.50;14.88;;;;;;;;;;8223892;28;20116;-71
2021/04/18 22:56:13;;;;;;;39.13;16.80;;;;;;;;;;8221900;28;20502;-71
2021/04/18 23:00:22;;;;;;;40.97;17.85;;;;;;;;;;8224297;28;20053;-72
2021/04/18 23:04:26;;;;;;;50.58;21.98;;;;;;;;;;8223906;28;20452;-72
2021/04/18 23:08:31;;;;;;;86.80;30.45;;;;;;;;;;8224082;28;20372;-72
2021/04/18 23:12:36;;;;;;;53.50;23.08;;;;;;;;;;8205626;28;20111;-72
2021/04/18 23:16:40;;;;;;;72.72;27.52;;;;;;;;;;8222302;28;20046;-71
2021/04/18 23:20:46;;;;;;;67.47;26.02;;;;;;;;;;8223545;28;20472;-72
2021/04/18 23:24:50;;;;;;;54.85;23.02;;;;;;;;;;8237374;28;20350;-72
2021/04/18 23:28:56;;;;;;;54.80;21.55;;;;;;;;;;8225413;28;20053;-72
2021/04/18 23:32:59;;;;;;;49.08;21.25;;;;;;;;;;8250432;28;20380;-71
2021/04/18 23:37:03;;;;;;;62.65;25.42;;;;;;;;;;8238725;28;20479;-72
2021/04/18 23:41:09;;;;;;;66.82;24.13;;;;;;;;;;8243812;28;20446;-72
2021/04/18 23:45:14;;;;;;;53.60;23.75;;;;;;;;;;8262045;28;20375;-72
2021/04/18 23:49:19;;;;;;;54.55;22.70;;;;;;;;;;8242747;28;20476;-72
2021/04/18 23:53:23;;;;;;;55.78;23.98;;;;;;;;;;8262053;28;20079;-72
2021/04/18 23:57:28;;;;;;;52.42;22.02;;;;;;;;;;8261752;28;20495;-72
